Terminal Aerodrome Forecast
Issued by NWS

Home | Current Version | Previous Version | Text Only | Print | Product List | Glossary On
Versions: 1 2 3 4 5 6 7 8 9 10 11 12 13 14 15 16 17 18 19
415
FTUS41 KPHI 281729
TAFMIV
TAF
KMIV 281729Z 2818/0118 18005KT P6SM SCT250
     FM282300 17005KT P6SM BKN040 OVC100
     FM010200 16005KT 2SM SHRA BR BKN015 OVC025
     FM010400 17005KT 2SM BR SCT003 OVC008 WS020/21035KT
     FM010600 20008KT 2SM BR OVC004 WS020/22040KT
     FM011500 23014G23KT 5SM -SHRA BKN010=

USA.gov is the U.S. government's official web portal to all federal, state and local government web resources and services.